Flight Track Log - Related Links

Times and Time Zones

All times are in EDT time to prevent confusion due to time zone crossing. See the GTX256 flight status page for this flight to view local times or setup timezone preferences in your user account.


Time Position Orientation Groundspeed Altitude Reporting Facility
EDT Latitude Longitude Course Direction KTS MPH feet Rate Location/Type
Thu 08:45:59 PM 29.5219 -98.4783 297° West 122 140 1,200  Level Houston Center
Thu 08:46:30 PM 29.5300 -98.4967 297° West 132 152 1,700 1,059 Climbing Houston Center
Thu 08:47:07 PM 29.5486 -98.5064 336° Northwest 127 146 2,400 911 Climbing Houston Center
Thu 08:47:49 PM 29.5708 -98.5086 355° North 115 132 2,900 774 Climbing Houston Center
Thu 08:48:09 PM 29.5811 -98.5086 360° North 119 137 3,200 857 Climbing Houston Center
Thu 08:48:31 PM 29.5942 -98.5106 353° North 116 133 3,500 774 Climbing Houston Center
Thu 08:49:11 PM 29.6147 -98.5108 359° North 119 137 4,000 716 Climbing Houston Center
Thu 08:49:38 PM 29.6303 -98.5136 351° North 126 145 4,300 774 Climbing Houston Center
Thu 08:50:13 PM 29.6528 -98.5125 North 123 142 4,800 655 Climbing Houston Center
Thu 08:50:33 PM 29.6614 -98.5122 North 123 142 4,900 677 Climbing Houston Center
Thu 08:51:15 PM 29.6867 -98.5131 358° North 123 142 5,500 590 Climbing Houston Center
Thu 08:51:34 PM 29.6972 -98.5125 North 123 142 5,500 97 Level Houston Center
Thu 08:52:17 PM 29.7256 -98.5128 360° North 138 159 5,600  Climbing Houston Center
Thu 08:52:34 PM 29.7392 -98.5100 10° North 161 185 5,500  Descending Houston Center
Thu 08:53:19 PM 29.7739 -98.4981 17° North 161 185 5,600 -90 Climbing Houston Center
Thu 08:53:41 PM 29.7900 -98.4919 18° North 172 198 5,400 -97 Descending Houston Center
Thu 08:54:21 PM 29.8175 -98.4778 24° Northeast 167 192 5,500 179 Climbing Houston Center
Thu 08:54:48 PM 29.8336 -98.4650 35° Northeast 163 188 5,600  Climbing Houston Center
Thu 08:55:23 PM 29.8575 -98.4461 34° Northeast 165 190 5,500 -62 Descending Houston Center
Thu 08:56:25 PM 29.8958 -98.4181 32° Northeast 165 190 5,500  Level Houston Center
Thu 08:57:27 PM 29.9394 -98.3908 28° Northeast 165 190 5,500 48 Level Houston Center
Thu 08:58:29 PM 29.9781 -98.3633 32° Northeast 165 190 5,600  Climbing Houston Center
Thu 08:59:31 PM 30.0144 -98.3342 35° Northeast 163 188 5,500 -48 Descending Houston Center
Thu 09:00:33 PM 30.0572 -98.3044 31° Northeast 163 188 5,500  Level Houston Center
Thu 09:01:35 PM 30.0983 -98.2797 27° Northeast 164 189 5,500 48 Level Houston Center
Thu 09:02:37 PM 30.1386 -98.2472 35° Northeast 164 189 5,600 48 Climbing Houston Center
Thu 09:03:39 PM 30.1775 -98.2183 33° Northeast 164 189 5,600  Level Houston Center
Thu 09:04:40 PM 30.2189 -98.1939 27° Northeast 165 190 5,600 -49 Level Houston Center
Thu 09:05:42 PM 30.2611 -98.1653 30° Northeast 165 190 5,500 -48 Descending Houston Center
Thu 09:06:44 PM 30.2994 -98.1344 35° Northeast 165 190 5,500 48 Level Houston Center
Thu 09:07:46 PM 30.3400 -98.1064 31° Northeast 165 190 5,600  Climbing Houston Center
Thu 09:08:48 PM 30.3797 -98.0803 30° Northeast 165 190 5,500 -48 Descending Houston Center
Thu 09:09:50 PM 30.4194 -98.0508 33° Northeast 166 191 5,500 49 Level Houston Center
Thu 09:10:51 PM 30.4569 -98.0228 33° Northeast 165 190 5,600 49 Climbing Houston Center
Thu 09:11:53 PM 30.4967 -97.9967 30° Northeast 165 190 5,600 -48 Level Houston Center
Thu 09:12:55 PM 30.5372 -97.9675 32° Northeast 169 194 5,500 -49 Descending Houston Center
Thu 09:13:56 PM 30.5822 -97.9325 34° Northeast 166 191 5,500  Level Houston Center
Thu 09:14:58 PM 30.6228 -97.9072 28° Northeast 166 191 5,500 48 Level Houston Center
Thu 09:16:00 PM 30.6622 -97.8806 30° Northeast 166 191 5,600  Climbing Houston Center
Thu 09:17:02 PM 30.7006 -97.8492 35° Northeast 166 191 5,500 -49 Descending Houston Center
Thu 09:18:03 PM 30.7400 -97.8222 30° Northeast 166 191 5,500  Level Houston Center
Thu 09:19:05 PM 30.7808 -97.7961 29° Northeast 166 191 5,500 49 Level Houston Center
Thu 09:20:06 PM 30.8192 -97.7656 34° Northeast 166 191 5,600 49 Climbing Houston Center
Thu 09:21:08 PM 30.8583 -97.7358 33° Northeast 166 191 5,600 -53 Level Houston Center
Thu 09:22:00 PM 30.8983 -97.7092 30° Northeast 168 193 5,500 -54 Descending Fort Worth Center
Thu 09:23:00 PM 30.9392 -97.6803 31° Northeast 168 193 5,500 47 Level Fort Worth Center
Thu 09:24:07 PM 30.9817 -97.6489 32° Northeast 161 185 5,600 47 Climbing Fort Worth Center
Thu 09:25:08 PM 31.0206 -97.6228 30° Northeast 164 189 5,600 -50 Level Fort Worth Center
Thu 09:26:08 PM 31.0581 -97.5847 41° Northeast 167 192 5,500  Descending Fort Worth Center
Thu 09:27:09 PM 31.0897 -97.5500 43° Northeast 167 192 5,600 47 Climbing Fort Worth Center
Thu 09:28:16 PM 31.1325 -97.5203 31° Northeast 166 191 5,600 -47 Level Fort Worth Center
Thu 09:29:18 PM 31.1803 -97.5075 13° North 172 198 5,500 -52 Descending Fort Worth Center
Thu 09:30:11 PM 31.2261 -97.4931 15° North 173 199 5,500  Level Fort Worth Center
Thu 09:31:21 PM 31.2750 -97.4792 14° North 173 199 5,500  Level Fort Worth Center
Thu 09:32:23 PM 31.3211 -97.4647 15° North 173 199 5,500 77 Level Fort Worth Center
Thu 09:32:39 PM 31.3392 -97.4581 18° North 175 201 5,600  Climbing Fort Worth Center
Thu 09:33:25 PM 31.3772 -97.4475 13° North 173 199 5,500 -56 Descending Fort Worth Center
Thu 09:34:26 PM 31.4253 -97.4336 14° North 173 199 5,500  Level Fort Worth Center
Thu 09:35:28 PM 31.4714 -97.4192 15° North 173 199 5,500 48 Level Fort Worth Center
Thu 09:36:30 PM 31.5172 -97.4042 16° North 172 198 5,600 98 Climbing Fort Worth Center
Thu 09:37:31 PM 31.5608 -97.3839 22° Northeast 171 197 5,700  Climbing Fort Worth Center
Thu 09:38:33 PM 31.6078 -97.3639 20° North 174 200 5,600 -48 Descending Fort Worth Center
Thu 09:39:35 PM 31.6558 -97.3483 15° North 176 203 5,600 -58 Level Fort Worth Center
Thu 09:40:16 PM 31.6967 -97.3364 14° North 177 204 5,500 -97 Descending Fort Worth Center
Thu 09:40:37 PM 31.7128 -97.3289 22° Northeast 176 203 5,500  Level Fort Worth Center
Thu 09:41:38 PM 31.7583 -97.3086 21° North 176 203 5,500 49 Level Fort Worth Center
Thu 09:42:40 PM 31.8047 -97.2894 19° North 176 203 5,600 48 Climbing Fort Worth Center
Thu 09:43:42 PM 31.8525 -97.2767 13° North 176 203 5,600 -63 Level Fort Worth Center
Thu 09:44:16 PM 31.8828 -97.2631 21° North 182 209 5,500 -197 Descending Fort Worth Center
Thu 09:44:43 PM 31.9000 -97.2556 20° North 178 205 5,400 -337 Descending Fort Worth Center
Thu 09:45:45 PM 31.9481 -97.2303 24° Northeast 185 213 5,000 -387 Descending Fort Worth Center
Thu 09:46:47 PM 32.0089 -97.2128 14° North 193 222 4,600 -390 Descending Fort Worth Center
Thu 09:47:48 PM 32.0597 -97.1942 17° North 192 221 4,200 -400 Descending Fort Worth Center
Thu 09:48:17 PM 32.0844 -97.1822 22° Northeast 192 221 4,000 -290 Descending Fort Worth Center
Thu 09:48:50 PM 32.1061 -97.1714 23° Northeast 191 220 3,900 -319 Descending Fort Worth Center
Thu 09:49:51 PM 32.1581 -97.1517 18° North 192 221 3,500 -195 Descending Fort Worth Center
Thu 09:50:53 PM 32.2083 -97.1381 13° North 189 217 3,500 -48 Level Fort Worth Center
Thu 09:51:55 PM 32.2658 -97.1133 20° North 182 209 3,400 -49 Descending Fort Worth Center
Thu 09:52:56 PM 32.3136 -97.0914 21° North 181 208 3,400  Level Fort Worth Center
Thu 09:53:58 PM 32.3631 -97.0783 13° North 181 208 3,400  Level Fort Worth Center
Thu 09:54:59 PM 32.4142 -97.0572 19° North 181 208 3,400  Level Fort Worth Center
Thu 09:56:01 PM 32.4603 -97.0356 22° Northeast 180 207 3,400  Level Fort Worth Center
Thu 09:57:03 PM 32.5103 -97.0206 14° North 182 209 3,400  Level Fort Worth Center
Thu 09:58:04 PM 32.5622 -97.0014 17° North 183 211 3,400  Level Fort Worth Center
Thu 09:59:06 PM 32.6083 -96.9758 25° Northeast 183 211 3,400  Level Fort Worth Center
Thu 10:00:07 PM 32.6572 -96.9636 12° North 183 211 3,400 -341 Level Fort Worth Center
Thu 10:01:09 PM 32.7114 -96.9406 20° North 188 216 2,700 -488 Descending Fort Worth Center
Thu 10:02:10 PM 32.7578 -96.9094 29° Northeast 190 219 2,400 -146 Descending Fort Worth Center
Thu 10:03:12 PM 32.7969 -96.8817 31° Northeast 184 212 2,400  Level Fort Worth Center
Thu 10:04:14 PM 32.8469 -96.8536 25° Northeast 176 203 2,400 -146 Level Fort Worth Center
Thu 10:05:15 PM 32.8944 -96.8333 20° North 178 205 2,100 -293 Descending Fort Worth Center
Thu 10:06:17 PM 32.9436 -96.8492 345° North 181 208 1,800 -97 Descending Fort Worth Center
Thu 10:07:19 PM 32.9800 -96.8839 321° Northwest 156 180 1,900 49 Climbing Fort Worth Center
Thu 10:08:20 PM 33.0144 -96.9092 328° Northwest 149 171 1,900 49 Level Fort Worth Center
Thu 10:09:22 PM 33.0514 -96.9167 350° North 148 170 2,000  Climbing Fort Worth Center
Thu 10:10:23 PM 33.0603 -96.8806 74° East 120 138 1,900 -293 Descending Fort Worth Center
Thu 10:11:25 PM 33.0294 -96.8617 153° Southeast 111 128 1,400 -390 Descending Fort Worth Center
Thu 10:12:26 PM 33.0019 -96.8506 161° South 109 125 1,100 -341 Descending Fort Worth Center
Thu 10:13:28 PM 32.9781 -96.8406 161° South 93 107 700 -387 Descending Fort Worth Center
Thu 10:15:00 PM 32.9667 -96.8333 121° Southeast  Level FlightAware Approximate
Thu 10:22:00 PM 32.9686 -96.8364 121° Southeast  Level Estimated
Thu 10:23:00 PM 32.9686 -96.8364 301° West  Level Estimated
Thu 10:24:00 PM 32.9686 -96.8364 121° Southeast  Level Estimated
Thu 10:25:00 PM 32.9686 -96.8364 126° Southeast  Level Estimated
Thu 10:26:00 PM 32.9667 -96.8333 121° Southeast  Level FlightAware Approximate

Login

Don't have an account? Register now (free) for customized features, flight alerts, and more!